Time;durP1;ratioP1;P1;durP2;ratioP2;P2;SDS_P1;SDS_P2;PMS_P1;PMS_P2;Temp;Humidity;BMP_temperature;BMP_pressure;BME280_temperature;BME280_humidity;BME280_pressure;Samples;Min_cycle;Max_cycle;Signal;HPM_P1;HPM_P2
2021/03/18 00:01:44;;;;;;;21.60;5.10;;;;;;;0.53;91.18;102714.44;5095852;28;20397;-72
2021/03/18 00:04:13;;;;;;;22.08;5.53;;;;;;;0.50;90.88;102712.50;5094412;28;20367;-73
2021/03/18 00:06:40;;;;;;;21.85;5.30;;;;;;;0.45;90.60;102716.50;5094125;28;20496;-72
2021/03/18 00:09:08;;;;;;;21.45;5.53;;;;;;;0.39;90.09;102709.91;5093245;28;20478;-73
2021/03/18 00:11:34;;;;;;;20.95;5.70;;;;;;;0.38;90.10;102708.06;5092556;28;20420;-73
2021/03/18 00:14:00;;;;;;;20.02;5.30;;;;;;;0.33;90.53;102698.22;5093830;28;20027;-67
2021/03/18 00:16:25;;;;;;;20.73;5.35;;;;;;;0.28;90.57;102709.09;5094375;28;20028;-72
2021/03/18 00:18:54;;;;;;;20.10;5.25;;;;;;;0.22;91.17;102706.94;5092320;28;20114;-72
2021/03/18 00:21:21;;;;;;;20.92;5.40;;;;;;;0.21;91.74;102715.53;5094235;28;20028;-72
2021/03/18 00:23:47;;;;;;;24.85;5.35;;;;;;;0.18;91.92;102712.69;5093945;28;20111;-72
2021/03/18 00:26:13;;;;;;;20.63;5.25;;;;;;;0.15;92.72;102704.66;5092810;28;20056;-73
2021/03/18 00:28:38;;;;;;;20.23;5.43;;;;;;;0.08;92.01;102713.66;5093726;28;20117;-72
2021/03/18 00:31:07;;;;;;;19.50;5.43;;;;;;;0.05;92.14;102699.53;5093308;28;20455;-72
2021/03/18 00:33:33;;;;;;;19.50;5.00;;;;;;;-0.02;91.27;102698.16;5094131;28;20028;-73
2021/03/18 00:35:59;;;;;;;22.00;5.28;;;;;;;-0.02;92.19;102698.16;5092887;28;20058;-72
2021/03/18 00:38:25;;;;;;;22.42;5.90;;;;;;;-0.10;92.52;102694.97;5092981;28;20069;-72
2021/03/18 00:40:56;;;;;;;20.90;5.22;;;;;;;-0.14;91.70;102697.22;5091867;28;20035;-72
2021/03/18 00:43:22;;;;;;;21.05;5.40;;;;;;;-0.10;91.20;102689.78;5092904;28;20028;-72
2021/03/18 00:45:49;;;;;;;22.15;5.65;;;;;;;-0.12;91.51;102699.13;5092671;28;20035;-72
2021/03/18 00:48:17;;;;;;;18.98;5.03;;;;;;;-0.15;91.59;102692.78;5093711;28;20024;-71
2021/03/18 00:50:48;;;;;;;22.38;5.30;;;;;;;-0.18;91.95;102693.47;5090534;28;20081;-71
2021/03/18 00:53:17;;;;;;;21.45;5.32;;;;;;;-0.20;91.65;102701.13;5093447;28;20051;-72
2021/03/18 00:55:43;;;;;;;23.05;5.15;;;;;;;-0.24;91.68;102699.09;5092362;28;20028;-71
2021/03/18 00:58:08;;;;;;;19.75;5.03;;;;;;;-0.22;91.43;102702.72;5093259;28;20081;-71
2021/03/18 01:00:37;;;;;;;17.67;4.80;;;;;;;-0.22;91.68;102709.59;5092370;28;20036;-73
2021/03/18 01:03:02;;;;;;;22.70;5.40;;;;;;;-0.27;92.21;102710.94;5089963;28;20470;-72
2021/03/18 01:05:29;;;;;;;20.70;5.45;;;;;;;-0.25;92.63;102714.56;5093653;28;20039;-71
2021/03/18 01:07:55;;;;;;;20.30;5.05;;;;;;;-0.26;92.63;102707.53;5092411;28;20122;-71
2021/03/18 01:10:21;;;;;;;20.15;4.97;;;;;;;-0.25;92.62;102704.16;5093967;28;20115;-71
2021/03/18 01:12:46;;;;;;;19.85;4.78;;;;;;;-0.26;92.51;102705.88;5092182;28;20032;-71
2021/03/18 01:15:13;;;;;;;22.55;5.00;;;;;;;-0.24;92.64;102708.59;5093336;28;20025;-70
2021/03/18 01:17:40;;;;;;;20.70;5.20;;;;;;;-0.23;92.21;102707.81;5091027;28;20441;-70
2021/03/18 01:20:11;;;;;;;22.25;4.82;;;;;;;-0.22;92.58;102707.00;5092571;28;20036;-71
2021/03/18 01:22:36;;;;;;;19.10;4.80;;;;;;;-0.28;92.96;102704.81;5092275;28;20040;-70
2021/03/18 01:25:02;;;;;;;21.70;4.82;;;;;;;-0.31;92.33;102711.50;5092776;28;20024;-69
2021/03/18 01:27:27;;;;;;;21.90;5.18;;;;;;;-0.37;92.79;102707.59;5092032;28;20382;-70
2021/03/18 01:29:53;;;;;;;20.70;5.00;;;;;;;-0.40;93.05;102719.47;5092040;28;20028;-71
2021/03/18 01:32:18;;;;;;;17.38;4.97;;;;;;;-0.46;93.09;102711.19;5090575;28;20024;-71
2021/03/18 01:34:44;;;;;;;20.15;4.85;;;;;;;-0.51;93.20;102712.50;5092111;28;20028;-70
2021/03/18 01:37:10;;;;;;;19.45;4.85;;;;;;;-0.56;93.27;102710.44;5092773;28;20383;-71
2021/03/18 01:39:35;;;;;;;20.77;5.10;;;;;;;-0.58;93.73;102709.44;5091527;28;20039;-71
2021/03/18 01:42:00;;;;;;;20.38;4.75;;;;;;;-0.59;93.01;102704.13;5092801;28;20031;-71
2021/03/18 01:44:26;;;;;;;19.38;5.03;;;;;;;-0.63;93.53;102704.66;5091876;28;20024;-71
2021/03/18 01:46:51;;;;;;;21.08;5.40;;;;;;;-0.60;94.74;102707.50;5091502;28;20397;-70
2021/03/18 01:49:18;;;;;;;20.77;4.85;;;;;;;-0.63;95.01;102702.94;5092439;28;20073;-67
2021/03/18 01:51:43;;;;;;;21.20;5.10;;;;;;;-0.62;95.52;102714.28;5091454;28;20030;-71
2021/03/18 01:54:10;;;;;;;19.73;4.95;;;;;;;-0.63;95.70;102707.25;5092116;28;20459;-69
2021/03/18 01:56:35;;;;;;;20.75;4.90;;;;;;;-0.65;95.44;102703.66;5088220;28;20024;-71
2021/03/18 01:59:01;;;;;;;21.27;5.18;;;;;;;-0.64;95.84;102700.25;5092768;28;20119;-71
2021/03/18 02:01:26;;;;;;;20.42;4.90;;;;;;;-0.67;96.07;102700.00;5091573;28;20028;-71
2021/03/18 02:03:51;;;;;;;21.40;5.35;;;;;;;-0.69;96.23;102697.28;5091630;28;20497;-71
2021/03/18 02:06:17;;;;;;;19.55;5.18;;;;;;;-0.68;95.69;102693.91;5090393;28;20034;-71
2021/03/18 02:08:43;;;;;;;21.27;5.35;;;;;;;-0.76;96.00;102685.50;5092615;28;20020;-69
2021/03/18 02:11:08;;;;;;;23.10;5.30;;;;;;;-0.81;96.46;102670.34;5092215;28;20124;-71
2021/03/18 02:13:34;;;;;;;21.80;5.10;;;;;;;-0.82;97.44;102666.81;5092048;28;20191;-71
2021/03/18 02:16:11;;;;;;;21.55;5.60;;;;;;;-0.82;97.49;102676.31;5094283;28;20055;-71
2021/03/18 02:19:12;;;;;;;19.75;4.65;;;;;;;-0.78;96.22;102676.66;5091099;28;20433;-71
2021/03/18 02:21:37;;;;;;;18.20;4.63;;;;;;;-0.81;96.08;102681.63;5088328;28;20394;-72
2021/03/18 02:24:40;;;;;;;18.45;4.88;;;;;;;-0.83;96.33;102666.69;5091961;28;20051;-72
2021/03/18 02:27:13;;;;;;;19.50;4.93;;;;;;;-0.85;96.29;102663.09;5090362;28;20119;-72
2021/03/18 02:29:53;;;;;;;;;;;;;;;-0.85;93.51;102668.28;5093009;28;20027;-71
2021/03/18 02:32:31;;;;;;;19.58;4.80;;;;;;;-0.88;94.79;102666.34;5091782;28;20316;-72
2021/03/18 02:35:27;;;;;;;22.00;5.03;;;;;;;-0.88;94.36;102663.75;5092967;28;20031;-72
2021/03/18 02:38:07;;;;;;;20.10;4.75;;;;;;;-0.92;95.36;102662.59;5090744;28;20040;-71
2021/03/18 02:40:37;;;;;;;20.48;4.82;;;;;;;-0.85;94.46;102663.09;5089830;28;20153;-69
2021/03/18 02:43:11;;;;;;;20.67;5.20;;;;;;;-0.88;94.77;102663.75;5094503;28;20032;-71
2021/03/18 02:45:41;;;;;;;18.63;4.80;;;;;;;-0.92;95.33;102666.88;5094758;28;20029;-72
2021/03/18 02:48:13;;;;;;;20.75;4.95;;;;;;;-0.95;96.08;102659.72;5095896;28;20062;-72
2021/03/18 02:50:40;;;;;;;20.83;5.05;;;;;;;-0.96;96.89;102654.41;5095155;28;20028;-72
2021/03/18 02:53:06;;;;;;;22.02;5.13;;;;;;;-0.93;97.81;102646.91;5095408;28;20054;-72
2021/03/18 02:55:35;;;;;;;21.50;5.78;;;;;;;-0.96;98.18;102644.97;5077846;28;20081;-73
2021/03/18 02:58:05;;;;;;;19.90;4.95;;;;;;;-1.01;97.82;102640.19;5076999;28;20046;-73
2021/03/18 03:00:31;;;;;;;22.80;5.18;;;;;;;-1.08;96.99;102621.53;5091878;28;20097;-73
2021/03/18 03:02:56;;;;;;;19.65;5.13;;;;;;;-1.18;97.88;102620.66;5095050;28;20890;-72
2021/03/18 03:05:24;;;;;;;18.42;4.63;;;;;;;-1.26;98.24;102622.63;5093605;28;20128;-66
2021/03/18 03:07:51;;;;;;;21.45;5.97;;;;;;;-1.33;100.00;102618.63;5094729;28;20023;-73
2021/03/18 03:10:21;;;;;;;22.30;5.90;;;;;;;-1.33;100.00;102628.09;5096474;28;20055;-72
2021/03/18 03:12:49;;;;;;;21.90;5.72;;;;;;;-1.37;100.00;102623.44;5095138;28;20020;-72
2021/03/18 03:15:16;;;;;;;22.38;5.70;;;;;;;-1.42;100.00;102623.97;5094764;28;20470;-72
2021/03/18 03:17:43;;;;;;;24.02;5.75;;;;;;;-1.39;100.00;102631.09;5094694;28;20431;-72
2021/03/18 03:20:11;;;;;;;22.60;5.25;;;;;;;-1.36;100.00;102635.66;5093832;28;20176;-72
2021/03/18 03:22:38;;;;;;;21.92;5.50;;;;;;;-1.35;100.00;102640.06;5075456;28;20122;-72
2021/03/18 03:25:07;;;;;;;22.92;5.60;;;;;;;-1.33;100.00;102633.31;5093968;28;20471;-72
2021/03/18 03:27:33;;;;;;;21.80;5.80;;;;;;;-1.30;100.00;102636.13;5095561;28;20041;-73
2021/03/18 03:29:59;;;;;;;24.30;5.85;;;;;;;-1.29;100.00;102637.97;5094514;28;20042;-73
2021/03/18 03:32:24;;;;;;;21.85;5.70;;;;;;;-1.30;100.00;102633.53;5094715;28;20024;-73
2021/03/18 03:34:49;;;;;;;22.83;5.55;;;;;;;-1.33;100.00;102638.50;5094340;28;20039;-72
2021/03/18 03:37:15;;;;;;;21.00;5.82;;;;;;;-1.34;100.00;102640.19;5094902;28;20119;-72
2021/03/18 03:39:40;;;;;;;22.92;6.18;;;;;;;-1.32;100.00;102637.72;5094035;28;20043;-72
2021/03/18 03:42:10;;;;;;;21.77;6.15;;;;;;;-1.32;100.00;102633.41;5094445;28;20054;-71
2021/03/18 03:44:37;;;;;;;22.40;5.80;;;;;;;-1.27;100.00;102631.19;5093998;28;20031;-68
2021/03/18 03:47:04;;;;;;;22.48;6.40;;;;;;;-1.21;100.00;102630.78;5094920;28;20111;-72
2021/03/18 03:49:30;;;;;;;22.23;5.95;;;;;;;-1.16;100.00;102638.16;5094828;28;20027;-72
2021/03/18 03:52:20;;;;;;;23.25;6.30;;;;;;;-1.09;100.00;102626.59;5093601;28;20032;-71
2021/03/18 03:55:20;;;;;;;22.85;6.07;;;;;;;-1.10;100.00;102633.47;5093441;28;20100;-73
2021/03/18 03:57:58;;;;;;;23.30;5.93;;;;;;;-1.11;100.00;102630.75;5093323;28;20378;-72
2021/03/18 04:00:24;;;;;;;20.27;5.72;;;;;;;-1.18;100.00;102642.34;5092561;28;20474;-72
2021/03/18 04:02:53;;;;;;;21.48;5.47;;;;;;;-1.23;100.00;102643.63;5094265;28;20478;-72
2021/03/18 04:05:19;;;;;;;22.63;6.57;;;;;;;-1.26;100.00;102653.78;5093025;28;20024;-72
2021/03/18 04:07:45;;;;;;;23.48;6.53;;;;;;;-1.32;100.00;102654.19;5093973;28;20020;-72
2021/03/18 04:10:14;;;;;;;21.42;5.95;;;;;;;-1.37;100.00;102647.69;5093896;28;20028;-73
2021/03/18 04:12:45;;;;;;;23.15;6.53;;;;;;;-1.47;100.00;102643.47;5094360;28;20378;-72
2021/03/18 04:15:17;;;;;;;22.95;6.55;;;;;;;-1.57;100.00;102633.13;5092927;28;20024;-72
2021/03/18 04:17:50;;;;;;;22.23;6.80;;;;;;;-1.64;100.00;102613.53;5094467;28;20083;-72
2021/03/18 04:20:18;;;;;;;23.00;6.88;;;;;;;-1.66;100.00;102611.59;5091652;28;20036;-72
2021/03/18 04:22:47;;;;;;;22.92;7.80;;;;;;;-1.64;100.00;102626.50;5094592;28;20379;-72
2021/03/18 04:25:13;;;;;;;23.52;7.20;;;;;;;-1.64;100.00;102612.66;5093187;28;20108;-70
2021/03/18 04:27:40;;;;;;;24.02;6.90;;;;;;;-1.70;100.00;102607.84;5095000;28;20035;-72
2021/03/18 04:30:14;;;;;;;25.65;7.40;;;;;;;-1.70;100.00;102601.75;5093326;28;20035;-71
2021/03/18 04:32:41;;;;;;;24.65;6.82;;;;;;;-1.77;100.00;102601.25;5092921;28;20040;-71
2021/03/18 04:35:08;;;;;;;22.75;6.45;;;;;;;-1.79;100.00;102604.47;5075277;28;20024;-66
2021/03/18 04:37:35;;;;;;;24.38;7.13;;;;;;;-1.83;100.00;102605.94;5092984;28;20375;-71
2021/03/18 04:40:03;;;;;;;23.45;6.72;;;;;;;-1.86;100.00;102603.09;5093969;28;20032;-72
2021/03/18 04:42:29;;;;;;;25.13;7.38;;;;;;;-1.87;100.00;102595.19;5092787;28;20101;-70
2021/03/18 04:44:55;;;;;;;24.42;6.97;;;;;;;-1.86;100.00;102592.72;5093288;28;20052;-71
2021/03/18 04:47:21;;;;;;;24.60;7.40;;;;;;;-1.88;100.00;102581.28;5093230;28;20020;-71
2021/03/18 04:49:47;;;;;;;24.85;7.85;;;;;;;-1.89;100.00;102597.66;5093061;28;20493;-69
2021/03/18 04:52:14;;;;;;;25.13;7.40;;;;;;;-1.94;100.00;102591.16;5092239;28;20019;-71
2021/03/18 04:54:40;;;;;;;23.02;7.18;;;;;;;-1.98;100.00;102594.28;5093011;28;20017;-72
2021/03/18 04:57:06;;;;;;;24.58;7.43;;;;;;;-1.96;100.00;102592.75;5092775;28;20028;-71
2021/03/18 04:59:32;;;;;;;22.88;7.60;;;;;;;-1.98;100.00;102590.03;5093446;28;20031;-70
2021/03/18 05:01:59;;;;;;;23.08;7.32;;;;;;;-1.98;100.00;102589.09;5073735;28;20028;-71
2021/03/18 05:04:24;;;;;;;22.92;7.65;;;;;;;-1.99;100.00;102588.19;5092555;28;20028;-71
2021/03/18 05:06:55;;;;;;;24.00;7.68;;;;;;;-1.98;100.00;102600.41;5091606;28;20107;-71
2021/03/18 05:09:24;;;;;;;26.05;7.57;;;;;;;-1.97;100.00;102596.09;5092043;28;20027;-71
2021/03/18 05:11:53;;;;;;;21.90;6.80;;;;;;;-1.94;100.00;102601.53;5093599;28;20028;-72
2021/03/18 05:14:19;;;;;;;23.30;7.13;;;;;;;-1.87;100.00;102605.56;5092383;28;20080;-72
2021/03/18 05:16:45;;;;;;;24.38;7.95;;;;;;;-1.77;100.00;102606.44;5092328;28;20039;-72
2021/03/18 05:19:12;;;;;;;28.63;9.40;;;;;;;-1.76;100.00;102605.66;5092068;28;20036;-71
2021/03/18 05:21:39;;;;;;;27.00;9.40;;;;;;;-1.76;100.00;102594.41;5092513;28;20092;-71
2021/03/18 05:24:07;;;;;;;26.92;9.65;;;;;;;-1.81;100.00;102594.00;5092619;28;20024;-71
2021/03/18 05:26:32;;;;;;;26.05;8.95;;;;;;;-1.83;100.00;102594.66;5091710;28;20073;-69
2021/03/18 05:28:57;;;;;;;26.15;9.18;;;;;;;-1.84;100.00;102578.19;5091570;28;20505;-71
2021/03/18 05:31:23;;;;;;;26.75;9.32;;;;;;;-1.84;100.00;102582.47;5092695;28;20035;-71
2021/03/18 05:33:50;;;;;;;26.65;9.63;;;;;;;-1.83;100.00;102590.38;5097985;28;20030;-71
2021/03/18 05:36:16;;;;;;;27.52;10.10;;;;;;;-1.79;100.00;102576.88;5092258;28;20028;-70
2021/03/18 05:38:42;;;;;;;25.35;9.93;;;;;;;-1.74;100.00;102568.59;5091765;28;20106;-72
2021/03/18 05:41:07;;;;;;;27.13;10.27;;;;;;;-1.69;100.00;102563.00;5093062;28;20115;-71
2021/03/18 05:43:33;;;;;;;29.88;11.50;;;;;;;-1.60;100.00;102576.69;5090558;28;20054;-71
2021/03/18 05:45:59;;;;;;;31.17;11.90;;;;;;;-1.56;100.00;102580.44;5092719;28;20031;-71
2021/03/18 05:48:25;;;;;;;31.20;12.35;;;;;;;-1.51;100.00;102575.66;5092004;28;20530;-71
2021/03/18 05:50:51;;;;;;;31.95;12.52;;;;;;;-1.47;100.00;102575.09;5092710;28;20020;-71
2021/03/18 05:53:22;;;;;;;30.52;12.23;;;;;;;-1.42;100.00;102576.38;5092864;28;20055;-71
2021/03/18 05:55:49;;;;;;;30.42;12.20;;;;;;;-1.38;100.00;102577.50;5089441;28;20024;-71
2021/03/18 05:58:15;;;;;;;31.10;11.85;;;;;;;-1.35;100.00;102573.50;5090558;28;20114;-70
2021/03/18 06:00:41;;;;;;;30.00;13.23;;;;;;;-1.32;100.00;102575.44;5091839;28;20028;-71
2021/03/18 06:03:07;;;;;;;30.80;13.60;;;;;;;-1.28;100.00;102567.09;5090596;28;20096;-71
2021/03/18 06:05:32;;;;;;;31.10;13.10;;;;;;;-1.23;100.00;102558.88;5092031;28;20455;-70
2021/03/18 06:07:58;;;;;;;32.33;13.95;;;;;;;-1.17;100.00;102552.38;5092516;28;20115;-71
2021/03/18 06:10:25;;;;;;;30.88;12.95;;;;;;;-1.14;100.00;102556.13;5091772;28;20402;-71
2021/03/18 06:12:53;;;;;;;31.40;13.48;;;;;;;-1.10;100.00;102557.28;5091759;28;20027;-72
2021/03/18 06:15:20;;;;;;;29.50;12.93;;;;;;;-1.08;100.00;102554.03;5092531;28;20394;-71
2021/03/18 06:17:47;;;;;;;30.27;12.30;;;;;;;-1.02;100.00;102555.28;5092721;28;20113;-72
2021/03/18 06:20:15;;;;;;;33.08;12.93;;;;;;;-0.99;100.00;102552.91;5091311;28;20024;-72
2021/03/18 06:22:45;;;;;;;30.30;13.40;;;;;;;-0.96;100.00;102554.09;5092427;28;20028;-72
2021/03/18 06:25:27;;;;;;;29.55;13.10;;;;;;;-0.87;100.00;102551.31;5090759;28;20055;-72
2021/03/18 06:28:24;;;;;;;29.83;13.23;;;;;;;-0.87;100.00;102556.50;5073696;28;20028;-72
2021/03/18 06:31:07;;;;;;;30.48;12.25;;;;;;;-0.85;100.00;102544.53;5090815;28;20031;-75
2021/03/18 06:33:40;;;;;;;31.63;12.60;;;;;;;-0.81;100.00;102543.97;5091200;28;20503;-73
2021/03/18 06:36:29;;;;;;;30.58;12.45;;;;;;;-0.75;100.00;102535.75;5090454;28;20040;-72
2021/03/18 06:39:11;;;;;;;30.23;13.45;;;;;;;-0.68;100.00;102521.53;5090636;28;20149;-71
2021/03/18 06:41:37;;;;;;;30.48;12.60;;;;;;;-0.63;100.00;102515.00;5090634;28;20385;-75
2021/03/18 06:44:22;;;;;;;29.63;12.60;;;;;;;-0.59;100.00;102517.94;5090698;28;20039;-72
2021/03/18 06:46:49;;;;;;;32.13;12.98;;;;;;;-0.52;100.00;102516.75;5090762;28;20028;-72
2021/03/18 06:49:16;;;;;;;30.40;13.35;;;;;;;-0.48;100.00;102515.25;5091020;28;20051;-73
2021/03/18 06:51:42;;;;;;;32.08;14.38;;;;;;;-0.46;100.00;102513.72;5070419;28;20491;-72
2021/03/18 06:54:18;;;;;;;30.27;14.05;;;;;;;-0.39;100.00;102523.78;5091282;28;20500;-73
2021/03/18 06:56:59;;;;;;;31.50;13.35;;;;;;;-0.33;100.00;102512.94;5089182;28;20136;-71
2021/03/18 06:59:36;;;;;;;28.75;12.40;;;;;;;-0.23;100.00;102518.03;5091240;28;20029;-71
2021/03/18 07:02:10;;;;;;;31.08;13.25;;;;;;;-0.17;100.00;102518.50;5091694;28;20107;-73
2021/03/18 07:04:38;;;;;;;30.50;12.50;;;;;;;-0.13;100.00;102510.13;5090213;28;20030;-67
2021/03/18 07:07:05;;;;;;;31.52;13.32;;;;;;;-0.06;100.00;102517.59;5089572;28;20107;-72
2021/03/18 07:09:32;;;;;;;32.72;13.73;;;;;;;-0.02;100.00;102511.81;5090466;28;20111;-72
2021/03/18 07:12:02;;;;;;;29.38;12.73;;;;;;;0.02;100.00;102504.25;5091831;28;20052;-72
2021/03/18 07:14:36;;;;;;;30.67;12.98;;;;;;;0.10;100.00;102497.91;5090482;28;20160;-74
2021/03/18 07:17:02;;;;;;;36.65;12.93;;;;;;;0.19;100.00;102496.00;5091200;28;20026;-73
2021/03/18 07:19:28;;;;;;;30.95;13.20;;;;;;;0.32;100.00;102501.28;5090489;28;20043;-74
2021/03/18 07:21:56;;;;;;;31.67;13.10;;;;;;;0.44;100.00;102484.75;5091551;28;20024;-73
2021/03/18 07:24:22;;;;;;;31.40;13.25;;;;;;;0.50;100.00;102495.59;5090731;28;20127;-69
2021/03/18 07:26:48;;;;;;;32.38;14.18;;;;;;;0.53;100.00;102490.63;5089620;28;20028;-71
2021/03/18 07:29:24;;;;;;;32.00;14.60;;;;;;;0.58;100.00;102498.75;5092420;28;20035;-74
2021/03/18 07:31:49;;;;;;;34.13;14.95;;;;;;;0.64;100.00;102501.78;5096348;28;20034;-74
2021/03/18 07:34:15;;;;;;;33.22;15.57;;;;;;;0.67;100.00;102500.31;5095286;28;20016;-73
2021/03/18 07:36:43;;;;;;;31.17;15.13;;;;;;;0.73;100.00;102498.94;5092671;28;20080;-67
2021/03/18 07:39:09;;;;;;;31.77;12.43;;;;;;;0.86;100.00;102499.91;5095305;28;20024;-72
2021/03/18 07:41:35;;;;;;;35.55;13.95;;;;;;;0.98;100.00;102497.25;5094014;28;20059;-74
2021/03/18 07:44:02;;;;;;;32.78;12.40;;;;;;;1.00;100.00;102493.03;5094806;28;20089;-72
2021/03/18 07:46:30;;;;;;;33.38;13.10;;;;;;;1.09;99.94;102478.88;5093530;28;20027;-71
2021/03/18 07:49:20;;;;;;;30.98;12.80;;;;;;;1.14;98.50;102478.38;5092988;28;20270;-73
2021/03/18 07:51:49;;;;;;;29.42;13.05;;;;;;;1.29;99.73;102488.94;5092026;28;20058;-72
2021/03/18 07:54:18;;;;;;;32.78;14.05;;;;;;;1.45;99.33;102493.50;5095057;28;20020;-74
2021/03/18 07:56:45;;;;;;;29.88;12.70;;;;;;;1.63;98.52;102478.22;5091618;28;20067;-73
2021/03/18 07:59:11;;;;;;;30.42;13.52;;;;;;;1.82;96.96;102480.34;5094164;28;20027;-72
2021/03/18 08:01:38;;;;;;;28.20;11.55;;;;;;;1.89;94.89;102497.28;5093991;28;20036;-74
2021/03/18 08:04:06;;;;;;;30.30;12.60;;;;;;;1.97;94.37;102493.47;5093780;28;20416;-66
2021/03/18 08:06:41;;;;;;;30.15;11.18;;;;;;;2.05;92.06;102493.97;5095122;28;20020;-73
2021/03/18 08:09:10;;;;;;;28.45;10.55;;;;;;;2.12;91.34;102497.91;5092654;28;20047;-74
2021/03/18 08:11:40;;;;;;;28.73;10.80;;;;;;;2.17;91.12;102491.25;5092226;28;20737;-73
2021/03/18 08:14:10;;;;;;;28.67;11.27;;;;;;;2.24;90.74;102502.22;5089331;28;20032;-71
2021/03/18 08:16:36;;;;;;;27.20;11.20;;;;;;;2.35;89.83;102502.88;5092398;28;20042;-68
2021/03/18 08:19:04;;;;;;;27.35;10.93;;;;;;;2.52;87.96;102510.88;5092929;28;20080;-72
2021/03/18 08:21:32;;;;;;;27.50;11.10;;;;;;;2.63;87.69;102514.19;5095690;28;20036;-73
2021/03/18 08:23:57;;;;;;;28.98;10.43;;;;;;;2.69;85.46;102518.09;5094308;28;20107;-68
2021/03/18 08:26:38;;;;;;;28.25;11.05;;;;;;;2.84;87.72;102519.84;5094125;28;20098;-67
2021/03/18 08:29:07;;;;;;;27.10;10.00;;;;;;;2.90;85.90;102521.16;5093985;28;20424;-67
2021/03/18 08:31:32;;;;;;;26.67;10.10;;;;;;;2.87;85.30;102517.44;5092363;28;20028;-65
2021/03/18 08:33:59;;;;;;;25.35;10.07;;;;;;;2.83;84.90;102516.34;5092871;28;20027;-65
2021/03/18 08:36:53;;;;;;;28.30;10.00;;;;;;;2.75;84.03;102518.50;5092570;28;20031;-64
2021/03/18 08:39:37;;;;;;;27.60;10.02;;;;;;;2.71;84.72;102516.50;5072764;28;20044;-66
2021/03/18 08:42:05;;;;;;;27.08;10.13;;;;;;;2.77;85.45;102516.88;5091296;28;20042;-65
2021/03/18 08:44:41;;;;;;;28.17;10.40;;;;;;;2.86;84.11;102510.44;5073141;28;20024;-65
2021/03/18 08:47:11;;;;;;;28.88;10.68;;;;;;;2.95;84.21;102509.25;5092680;28;20036;-65
2021/03/18 08:49:36;;;;;;;29.88;11.48;;;;;;;3.08;83.95;102503.09;5092610;28;20024;-65
2021/03/18 08:52:10;;;;;;;29.08;11.20;;;;;;;3.23;83.23;102510.06;5094174;28;20394;-65
2021/03/18 08:54:39;;;;;;;29.65;11.32;;;;;;;3.32;84.06;102510.66;5092725;28;20383;-65
2021/03/18 08:57:06;;;;;;;28.77;10.82;;;;;;;3.38;82.94;102511.00;5093579;28;20028;-64
2021/03/18 08:59:33;;;;;;;27.75;11.00;;;;;;;3.46;83.35;102514.97;5092099;28;20054;-64
2021/03/18 09:02:06;;;;;;;29.05;11.43;;;;;;;3.52;82.12;102505.69;5092659;28;20067;-64
2021/03/18 09:04:40;;;;;;;28.38;10.75;;;;;;;3.51;82.27;102507.41;5090319;28;20352;-64
2021/03/18 09:07:12;;;;;;;25.33;8.50;;;;;;;3.64;82.30;102502.09;5091839;28;20039;-64
2021/03/18 09:09:39;;;;;;;26.23;9.40;;;;;;;3.82;80.55;102498.75;5094213;28;20026;-64
2021/03/18 09:12:08;;;;;;;26.90;10.35;;;;;;;4.01;80.83;102501.63;5092242;28;20020;-64
2021/03/18 09:14:35;;;;;;;28.23;11.32;;;;;;;4.10;80.85;102505.59;5094392;28;20050;-64
2021/03/18 09:17:09;;;;;;;26.65;9.23;;;;;;;4.17;79.15;102500.78;5090833;28;20016;-64
2021/03/18 09:19:36;;;;;;;28.02;8.00;;;;;;;4.05;77.65;102502.72;5090802;28;20055;-65
2021/03/18 09:22:01;;;;;;;27.27;9.40;;;;;;;4.14;79.91;102497.09;5093021;28;20463;-65
2021/03/18 09:24:36;;;;;;;24.17;7.78;;;;;;;4.31;77.69;102493.72;5091849;28;20073;-64
2021/03/18 09:27:05;;;;;;;24.95;8.80;;;;;;;4.38;77.12;102488.81;5089806;28;20024;-65
2021/03/18 09:29:30;;;;;;;25.75;10.70;;;;;;;4.57;78.28;102495.97;5092176;28;20031;-65
2021/03/18 09:32:12;;;;;;;26.77;10.13;;;;;;;4.67;77.84;102496.56;5091058;28;20390;-64
2021/03/18 09:34:41;;;;;;;26.80;10.13;;;;;;;4.63;77.24;102496.31;5091138;28;20081;-72
2021/03/18 09:37:08;;;;;;;25.80;10.15;;;;;;;4.65;76.92;102489.44;5093230;28;20102;-64
2021/03/18 09:39:34;;;;;;;26.30;10.10;;;;;;;4.72;77.28;102483.72;5092777;28;20031;-69
2021/03/18 09:42:05;;;;;;;26.63;10.50;;;;;;;4.89;78.26;102482.91;5092956;28;20049;-65
2021/03/18 09:44:31;;;;;;;25.25;8.82;;;;;;;5.01;75.84;102479.13;5091566;28;20424;-64
2021/03/18 09:47:04;;;;;;;24.80;9.00;;;;;;;5.08;75.90;102470.78;5089384;28;20028;-66
2021/03/18 09:49:41;;;;;;;24.90;9.15;;;;;;;5.11;75.67;102477.91;5089617;28;20039;-63
2021/03/18 09:52:12;;;;;;;27.52;9.88;;;;;;;5.23;75.63;102468.97;5092141;28;20039;-64
2021/03/18 09:54:38;;;;;;;23.48;9.32;;;;;;;5.44;73.62;102467.38;5070512;28;20024;-64
2021/03/18 09:57:08;;;;;;;25.63;9.40;;;;;;;5.63;73.28;102470.09;5089318;28;20045;-65
2021/03/18 09:59:35;;;;;;;23.98;8.82;;;;;;;5.71;72.39;102463.53;5090300;28;20357;-65
2021/03/18 10:02:01;;;;;;;27.27;8.48;;;;;;;5.85;72.33;102464.19;5091444;28;20099;-65
2021/03/18 10:04:27;;;;;;;25.35;8.48;;;;;;;6.26;71.04;102465.38;5094034;28;20027;-67
2021/03/18 10:06:56;;;;;;;26.55;8.65;;;;;;;6.45;70.81;102466.22;5092705;28;20024;-66
2021/03/18 10:09:30;;;;;;;24.42;8.35;;;;;;;6.47;70.53;102466.31;5092714;28;20036;-65
2021/03/18 10:11:56;;;;;;;24.10;9.23;;;;;;;6.45;70.01;102456.63;5072098;28;20070;-66
2021/03/18 10:14:23;;;;;;;24.77;8.93;;;;;;;6.36;70.36;102458.81;5090814;28;20031;-72
2021/03/18 10:16:50;;;;;;;26.75;8.43;;;;;;;6.20;70.68;102453.66;5094435;28;20074;-64
2021/03/18 10:19:17;;;;;;;26.42;8.90;;;;;;;6.02;72.25;102445.81;5092082;28;20040;-64
2021/03/18 10:21:44;;;;;;;28.02;8.98;;;;;;;5.92;71.54;102447.03;5086346;28;20115;-65
2021/03/18 10:24:11;;;;;;;26.83;9.18;;;;;;;5.73;71.96;102440.88;5090609;28;20028;-65
2021/03/18 10:26:37;;;;;;;26.13;9.13;;;;;;;5.57;72.49;102438.31;5091464;28;20031;-65
2021/03/18 10:29:05;;;;;;;30.80;9.55;;;;;;;5.58;73.11;102432.25;5091462;28;20085;-65
2021/03/18 10:31:31;;;;;;;28.17;9.30;;;;;;;5.43;72.92;102427.13;5089473;28;20028;-66
2021/03/18 10:33:57;;;;;;;29.08;9.15;;;;;;;5.27;74.33;102432.41;5090115;28;20024;-71
2021/03/18 10:36:33;;;;;;;28.50;8.70;;;;;;;5.23;74.91;102436.59;5090813;28;20057;-65
2021/03/18 10:39:00;;;;;;;27.20;9.15;;;;;;;4.99;75.19;102433.59;5091165;28;20028;-66
2021/03/18 10:41:26;;;;;;;26.95;9.65;;;;;;;4.93;76.71;102436.78;5090607;28;20028;-64
2021/03/18 10:43:52;;;;;;;28.08;9.60;;;;;;;4.88;77.66;102433.03;5094562;28;20103;-69
2021/03/18 10:46:25;;;;;;;30.90;10.43;;;;;;;4.76;77.07;102421.91;5090747;28;20078;-67
2021/03/18 10:48:51;;;;;;;30.45;10.30;;;;;;;4.73;78.50;102425.25;5093807;28;20024;-64
2021/03/18 10:51:18;;;;;;;30.80;9.70;;;;;;;4.68;78.77;102421.50;5090229;28;20028;-71
2021/03/18 10:53:45;;;;;;;28.02;9.63;;;;;;;4.78;79.17;102418.53;5089730;28;20024;-71
2021/03/18 10:56:17;;;;;;;28.30;10.13;;;;;;;4.72;80.24;102420.84;5090365;28;20081;-65
2021/03/18 10:58:43;;;;;;;28.30;10.73;;;;;;;4.64;80.67;102430.00;5092152;28;20035;-65
2021/03/18 11:01:12;;;;;;;29.02;11.38;;;;;;;4.44;81.94;102418.44;5091430;28;20103;-70
2021/03/18 11:03:40;;;;;;;30.83;12.68;;;;;;;4.51;83.82;102416.25;5092271;28;20028;-68
2021/03/18 11:06:19;;;;;;;31.95;14.15;;;;;;;4.56;83.79;102416.50;5095397;28;20382;-68
2021/03/18 11:08:46;;;;;;;34.85;13.45;;;;;;;4.52;83.09;102420.66;5095441;28;20466;-65
2021/03/18 11:11:20;;;;;;;33.75;14.02;;;;;;;4.48;85.00;102407.31;5094217;28;20027;-70
2021/03/18 11:13:46;;;;;;;33.00;13.57;;;;;;;4.52;84.62;102422.38;5095012;28;20032;-67
2021/03/18 11:16:19;;;;;;;32.28;14.90;;;;;;;4.49;85.19;102415.25;5093096;28;20156;-66
2021/03/18 11:18:45;;;;;;;31.88;14.27;;;;;;;4.48;81.51;102415.19;5092604;28;20615;-72
2021/03/18 11:21:24;;;;;;;31.02;12.73;;;;;;;4.49;81.47;102406.50;5095649;28;20100;-75
2021/03/18 11:23:52;;;;;;;33.05;14.57;;;;;;;4.44;81.97;102413.19;5095379;28;20054;-75